createdAt,value
2018-09-26T00:00:27.844Z,4.50
2018-09-26T00:03:02.723Z,4.50
2018-09-26T00:05:32.372Z,4.50
2018-09-26T00:08:02.241Z,4.50
2018-09-26T00:10:40.596Z,4.50
2018-09-26T00:13:14.936Z,4.50
2018-09-26T00:15:47.128Z,4.50
2018-09-26T00:18:16.498Z,4.40
2018-09-26T00:20:45.848Z,4.40
2018-09-26T00:23:14.547Z,4.40
2018-09-26T00:25:43.875Z,4.40
2018-09-26T00:28:17.238Z,4.30
2018-09-26T00:30:47.965Z,4.50
2018-09-26T00:33:19.373Z,4.50
2018-09-26T00:35:49.135Z,4.50
2018-09-26T00:38:19.652Z,4.50
2018-09-26T00:40:49.107Z,4.40
2018-09-26T00:43:18.194Z,4.40
2018-09-26T00:45:47.699Z,4.30
2018-09-26T00:48:19.361Z,4.30
2018-09-26T00:50:48.394Z,4.40
2018-09-26T00:53:19.141Z,4.40
2018-09-26T00:55:48.398Z,4.40
2018-09-26T00:58:17.272Z,4.40
2018-09-26T01:00:46.762Z,4.40
2018-09-26T01:03:16.253Z,4.40
2018-09-26T01:05:45.273Z,4.30
2018-09-26T01:08:14.396Z,4.30
2018-09-26T01:10:45.054Z,4.30
2018-09-26T01:13:13.915Z,4.30
2018-09-26T01:15:44.226Z,4.10
2018-09-26T01:18:13.097Z,4.00
2018-09-26T01:20:43.415Z,4.00
2018-09-26T01:23:13.177Z,3.90
2018-09-26T01:25:44.686Z,3.60
2018-09-26T01:28:14.468Z,3.70
2018-09-26T01:30:43.853Z,3.70
2018-09-26T01:33:13.423Z,3.80
2018-09-26T01:35:42.364Z,3.80
2018-09-26T01:38:12.012Z,3.70
2018-09-26T01:40:41.162Z,3.60
2018-09-26T01:43:09.883Z,3.70
2018-09-26T01:45:39.636Z,3.70
2018-09-26T01:48:08.115Z,3.60
2018-09-26T01:50:37.640Z,3.70
2018-09-26T01:53:06.512Z,3.60
2018-09-26T01:55:35.262Z,3.60
2018-09-26T01:58:05.857Z,3.70
2018-09-26T02:00:35.805Z,3.60
2018-09-26T02:03:05.176Z,3.60
2018-09-26T02:05:37.821Z,3.50
2018-09-26T02:08:07.029Z,3.50
2018-09-26T02:10:40.175Z,3.50
2018-09-26T02:13:08.836Z,3.50
2018-09-26T02:15:39.010Z,3.50
2018-09-26T02:18:08.067Z,3.60
2018-09-26T02:20:37.619Z,3.70
2018-09-26T02:23:06.623Z,3.60
2018-09-26T02:25:36.682Z,3.60
2018-09-26T02:28:06.172Z,3.60
2018-09-26T02:30:36.712Z,3.60
2018-09-26T02:33:05.607Z,3.50
2018-09-26T02:35:34.544Z,3.50
2018-09-26T02:38:04.822Z,3.50
2018-09-26T02:40:33.245Z,3.50
2018-09-26T02:43:02.039Z,3.50
2018-09-26T02:45:31.277Z,3.50
2018-09-26T02:48:00.321Z,3.40
2018-09-26T02:50:29.541Z,3.50
2018-09-26T02:52:59.790Z,3.50
2018-09-26T02:55:29.204Z,3.50
2018-09-26T02:58:07.099Z,3.40
2018-09-26T03:00:36.263Z,3.40
2018-09-26T03:03:05.883Z,3.50
2018-09-26T03:05:36.071Z,3.40
2018-09-26T03:08:05.626Z,3.50
2018-09-26T03:10:35.269Z,3.50
2018-09-26T03:13:04.837Z,3.50
2018-09-26T03:15:34.617Z,3.50
2018-09-26T03:18:03.800Z,3.50
2018-09-26T03:20:33.056Z,3.50
2018-09-26T03:23:02.461Z,3.40
2018-09-26T03:25:31.555Z,3.50
2018-09-26T03:28:01.215Z,3.50
2018-09-26T03:30:57.929Z,3.50
2018-09-26T03:33:53.504Z,3.30
2018-09-26T03:36:24.852Z,3.40
2018-09-26T03:39:06.495Z,3.40
2018-09-26T03:41:38.097Z,3.30
2018-09-26T03:44:07.314Z,3.30
2018-09-26T03:46:35.958Z,3.20
2018-09-26T03:49:05.261Z,3.20
2018-09-26T03:51:33.996Z,3.30
2018-09-26T03:54:04.878Z,3.30
2018-09-26T03:56:50.436Z,3.20
2018-09-26T03:59:24.568Z,3.10
2018-09-26T04:01:53.263Z,3.20
2018-09-26T04:04:24.791Z,3.30
2018-09-26T04:06:55.200Z,3.40
2018-09-26T04:09:24.274Z,3.40
2018-09-26T04:11:53.899Z,3.50
2018-09-26T04:14:23.332Z,3.40
2018-09-26T04:18:04.079Z,3.50
2018-09-26T04:20:33.495Z,3.50
2018-09-26T04:23:02.726Z,3.40
2018-09-26T04:25:32.937Z,3.40
2018-09-26T04:28:02.295Z,3.30
2018-09-26T04:30:31.484Z,3.20
2018-09-26T04:33:00.631Z,3.00
2018-09-26T04:35:29.352Z,3.00
2018-09-26T04:37:59.878Z,3.10
2018-09-26T04:40:28.794Z,3.00
2018-09-26T04:42:58.646Z,3.00
2018-09-26T04:45:29.540Z,3.00
2018-09-26T04:48:08.555Z,3.00
2018-09-26T04:50:38.436Z,3.00
2018-09-26T04:53:13.853Z,3.10
2018-09-26T04:55:48.790Z,3.20
2018-09-26T04:58:31.252Z,3.10
2018-09-26T05:01:08.752Z,3.20
2018-09-26T05:03:38.321Z,3.20
2018-09-26T05:06:07.730Z,3.30
2018-09-26T05:08:37.296Z,3.30
2018-09-26T05:11:12.721Z,3.20
2018-09-26T05:13:44.833Z,3.10
2018-09-26T05:16:25.848Z,3.10
2018-09-26T05:19:13.845Z,3.10
2018-09-26T05:21:53.485Z,3.20
2018-09-26T05:24:22.312Z,3.30
2018-09-26T05:26:54.176Z,3.40
2018-09-26T05:29:35.769Z,3.30
2018-09-26T05:32:04.565Z,3.40
2018-09-26T05:34:37.097Z,3.30
2018-09-26T05:37:12.161Z,3.20
2018-09-26T05:39:40.706Z,3.20
2018-09-26T05:42:09.361Z,3.40
2018-09-26T05:44:40.221Z,3.50
2018-09-26T05:47:10.172Z,3.50
2018-09-26T05:49:40.775Z,3.50
2018-09-26T05:52:22.596Z,3.60
2018-09-26T05:55:00.470Z,3.50
2018-09-26T05:57:29.631Z,3.50
2018-09-26T05:59:57.828Z,3.60
2018-09-26T06:02:27.043Z,3.60
2018-09-26T06:04:55.337Z,3.70
2018-09-26T06:07:25.551Z,3.40
2018-09-26T06:09:54.350Z,3.50
2018-09-26T06:12:26.056Z,3.60
2018-09-26T06:15:05.485Z,3.70
2018-09-26T06:18:22.275Z,3.80
2018-09-26T06:20:51.171Z,4.00
2018-09-26T06:23:22.741Z,4.10
2018-09-26T06:25:51.696Z,3.90
2018-09-26T06:28:20.059Z,4.20
2018-09-26T06:30:49.289Z,4.30
2018-09-26T06:33:23.377Z,4.50
2018-09-26T06:35:54.129Z,4.50
2018-09-26T06:38:26.273Z,4.40
2018-09-26T06:41:02.220Z,4.60
2018-09-26T06:43:32.686Z,4.90
2018-09-26T06:46:01.576Z,5.00
2018-09-26T06:48:29.797Z,5.10
2018-09-26T06:50:58.324Z,5.10
2018-09-26T06:53:27.005Z,5.20
2018-09-26T06:55:57.757Z,5.20
2018-09-26T06:58:26.770Z,5.30
2018-09-26T07:00:55.244Z,5.60
2018-09-26T07:03:30.352Z,5.50
2018-09-26T07:05:58.736Z,5.90
2018-09-26T07:08:37.510Z,6.10
2018-09-26T07:11:18.732Z,6.30
2018-09-26T07:13:47.339Z,6.70
2018-09-26T07:16:16.825Z,8.20
2018-09-26T07:18:51.422Z,9.60
2018-09-26T07:21:29.455Z,9.80
2018-09-26T07:24:04.921Z,10.60
2018-09-26T07:26:37.020Z,10.50
2018-09-26T07:29:46.871Z,11.10
2018-09-26T07:33:04.673Z,10.80
2018-09-26T07:35:35.349Z,10.20
2018-09-26T07:38:13.347Z,10.30
2018-09-26T07:40:45.846Z,10.70
2018-09-26T07:47:52.772Z,11.40
2018-09-26T07:50:45.078Z,12.20
2018-09-26T07:53:33.601Z,12.40
2018-09-26T07:56:08.647Z,13.10
2018-09-26T07:58:40.238Z,13.90
2018-09-26T08:01:10.544Z,14.90
2018-09-26T08:03:42.172Z,15.20
2018-09-26T08:06:11.108Z,14.80
2018-09-26T08:08:42.388Z,14.40
2018-09-26T08:11:17.748Z,14.30
2018-09-26T08:13:46.332Z,15.20
2018-09-26T08:16:15.263Z,15.70
2018-09-26T08:18:43.984Z,16.50
2018-09-26T08:21:36.845Z,18.40
2018-09-26T08:24:06.484Z,14.40
2018-09-26T08:26:35.722Z,15.30
2018-09-26T08:29:05.925Z,16.00
2018-09-26T08:31:35.390Z,14.90
2018-09-26T08:34:07.025Z,14.70
2018-09-26T08:36:36.109Z,16.90
2018-09-26T08:39:08.611Z,15.30
2018-09-26T08:41:39.273Z,15.60
2018-09-26T08:44:10.024Z,16.20
2018-09-26T08:46:42.675Z,18.80
2018-09-26T08:49:29.329Z,19.40
2018-09-26T08:52:13.610Z,19.50
2018-09-26T08:54:53.092Z,18.80
2018-09-26T08:57:26.270Z,19.70
2018-09-26T09:00:09.630Z,20.10
2018-09-26T09:02:45.561Z,16.90
2018-09-26T09:05:54.165Z,14.90
2018-09-26T09:11:09.699Z,13.20
2018-09-26T09:13:38.735Z,13.20
2018-09-26T09:16:11.783Z,13.40
2018-09-26T09:18:43.619Z,13.20
2018-09-26T09:21:13.357Z,13.70
2018-09-26T09:23:45.346Z,13.70
2018-09-26T09:26:16.921Z,13.80
2018-09-26T09:28:45.914Z,13.70
2018-09-26T09:31:15.812Z,13.80
2018-09-26T09:33:45.736Z,13.90
2018-09-26T09:36:14.513Z,13.80
2018-09-26T09:38:43.028Z,13.80
2018-09-26T09:41:12.605Z,13.70
2018-09-26T09:43:45.601Z,13.90
2018-09-26T09:46:15.616Z,13.80
2018-09-26T09:48:44.709Z,13.70
2018-09-26T09:51:17.319Z,13.80
2018-09-26T09:53:46.446Z,13.90
2018-09-26T09:56:20.909Z,13.90
2018-09-26T09:59:24.506Z,14.00
2018-09-26T10:05:24.244Z,14.20
2018-09-26T10:07:54.850Z,14.10
2018-09-26T10:10:27.584Z,14.10
2018-09-26T10:12:56.753Z,14.10
2018-09-26T10:15:28.363Z,14.00
2018-09-26T10:18:31.784Z,14.20
2018-09-26T10:21:02.419Z,14.00
2018-09-26T10:23:31.459Z,14.10
2018-09-26T10:26:00.810Z,14.00
2018-09-26T10:28:31.720Z,14.40
2018-09-26T10:31:12.239Z,14.20
2018-09-26T10:33:45.368Z,14.30
2018-09-26T10:36:43.479Z,14.40
2018-09-26T10:39:53.575Z,14.40
2018-09-26T10:42:23.237Z,14.60
2018-09-26T10:44:55.667Z,14.60
2018-09-26T10:47:23.778Z,14.50
2018-09-26T10:49:55.108Z,14.90
2018-09-26T10:52:26.554Z,15.00
2018-09-26T10:55:10.213Z,14.60
2018-09-26T10:57:38.913Z,14.80
2018-09-26T11:00:09.037Z,14.60
2018-09-26T11:02:39.770Z,14.70
2018-09-26T11:05:10.694Z,15.00
2018-09-26T11:08:15.113Z,15.10
2018-09-26T11:10:46.338Z,15.20
2018-09-26T11:13:16.302Z,15.10
2018-09-26T11:16:23.615Z,15.40
2018-09-26T11:18:54.792Z,15.70
2018-09-26T11:21:40.655Z,15.50
2018-09-26T11:24:10.085Z,15.10
2018-09-26T11:26:50.306Z,15.20
2018-09-26T11:29:23.967Z,15.50
2018-09-26T11:32:33.162Z,15.50
2018-09-26T11:35:16.663Z,15.90
2018-09-26T11:37:46.379Z,15.80
2018-09-26T11:40:44.474Z,15.60
2018-09-26T11:43:25.260Z,15.50
2018-09-26T11:46:16.660Z,15.30
2018-09-26T11:49:10.673Z,15.60
2018-09-26T11:51:39.844Z,16.00
2018-09-26T11:54:10.013Z,15.70
2018-09-26T11:57:09.529Z,15.50
2018-09-26T12:00:10.376Z,15.80
2018-09-26T12:02:53.213Z,16.00
2018-09-26T12:05:44.333Z,16.30
2018-09-26T12:08:52.491Z,16.50
2018-09-26T12:12:08.840Z,16.30
2018-09-26T12:15:27.488Z,16.40
2018-09-26T12:17:58.266Z,16.00
2018-09-26T12:20:36.112Z,15.80
2018-09-26T12:23:26.165Z,15.90
2018-09-26T12:25:58.009Z,15.90
2018-09-26T12:28:28.644Z,16.00
2018-09-26T12:30:57.363Z,15.90
2018-09-26T12:34:06.845Z,16.20
2018-09-26T12:37:05.308Z,16.20
2018-09-26T12:39:41.368Z,16.50
2018-09-26T12:42:10.320Z,16.50
2018-09-26T12:45:19.291Z,16.70
2018-09-26T12:47:53.406Z,16.70
2018-09-26T12:50:31.185Z,16.90
2018-09-26T12:53:29.773Z,16.70
2018-09-26T12:56:28.575Z,16.80
2018-09-26T12:59:04.145Z,16.80
2018-09-26T13:01:45.341Z,16.70
2018-09-26T13:04:15.213Z,16.80
2018-09-26T13:07:06.525Z,16.90
2018-09-26T13:09:34.875Z,16.70
2018-09-26T13:12:05.786Z,16.50
2018-09-26T13:14:53.057Z,16.70
2018-09-26T13:17:49.528Z,16.80
2018-09-26T13:20:40.808Z,17.10
2018-09-26T13:23:11.909Z,17.00
2018-09-26T13:25:41.247Z,16.90
2018-09-26T13:28:13.165Z,16.70
2018-09-26T13:30:49.081Z,16.80
2018-09-26T13:33:18.724Z,17.00
2018-09-26T13:35:50.441Z,17.20
2018-09-26T13:38:49.462Z,17.10
2018-09-26T13:41:25.744Z,17.20
2018-09-26T13:43:54.160Z,16.70
2018-09-26T13:46:35.689Z,16.60
2018-09-26T13:49:29.324Z,16.70
2018-09-26T13:52:06.220Z,16.80
2018-09-26T13:54:39.671Z,16.90
2018-09-26T13:57:34.742Z,16.80
2018-09-26T14:00:24.145Z,16.80
2018-09-26T14:03:19.544Z,16.70
2018-09-26T14:06:11.413Z,16.80
2018-09-26T14:08:58.823Z,16.90
2018-09-26T14:12:09.077Z,16.90
2018-09-26T14:18:44.667Z,17.10
2018-09-26T14:22:01.425Z,17.00
2018-09-26T14:24:49.096Z,17.10
2018-09-26T14:27:39.588Z,17.10
2018-09-26T14:30:31.329Z,17.30
2018-09-26T14:33:06.542Z,17.40
2018-09-26T14:35:53.393Z,17.10
2018-09-26T14:38:45.746Z,17.20
2018-09-26T14:41:15.422Z,17.00
2018-09-26T14:43:52.367Z,17.10
2018-09-26T14:49:17.457Z,17.10
2018-09-26T14:51:53.490Z,17.10
2018-09-26T14:54:31.848Z,17.10
2018-09-26T14:57:06.742Z,17.20
2018-09-26T14:59:41.213Z,17.00
2018-09-26T15:02:11.055Z,17.20
2018-09-26T15:04:49.298Z,17.10
2018-09-26T15:07:20.495Z,16.80
2018-09-26T15:09:58.119Z,16.80
2018-09-26T15:12:34.524Z,16.90
2018-09-26T15:15:09.467Z,16.80
2018-09-26T15:17:43.964Z,16.60
2018-09-26T15:20:13.718Z,16.50
2018-09-26T15:22:42.743Z,16.50
2018-09-26T15:25:11.253Z,16.40
2018-09-26T15:27:44.105Z,16.50
2018-09-26T15:30:34.166Z,16.40
2018-09-26T15:33:13.617Z,16.30
2018-09-26T15:35:51.268Z,16.20
2018-09-26T15:38:33.169Z,16.10
2018-09-26T15:41:21.045Z,16.10
2018-09-26T15:43:54.672Z,16.10
2018-09-26T15:49:13.203Z,16.10
2018-09-26T15:51:42.268Z,16.00
2018-09-26T15:54:13.415Z,15.90
2018-09-26T15:56:42.277Z,16.00
2018-09-26T15:59:32.531Z,15.90
2018-09-26T16:02:03.778Z,15.90
2018-09-26T16:05:36.360Z,15.90
2018-09-26T16:08:06.857Z,15.80
2018-09-26T16:11:19.890Z,15.70
2018-09-26T16:13:48.700Z,15.70
2018-09-26T16:16:17.972Z,15.60
2018-09-26T16:19:02.886Z,15.60
2018-09-26T16:21:50.891Z,15.60
2018-09-26T16:24:23.745Z,15.60
2018-09-26T16:30:22.268Z,15.50
2018-09-26T16:32:57.715Z,15.50
2018-09-26T16:35:36.025Z,15.30
2018-09-26T16:38:08.493Z,15.30
2018-09-26T16:40:46.252Z,15.30
2018-09-26T16:43:26.618Z,15.20
2018-09-26T16:46:34.562Z,15.20
2018-09-26T16:49:05.947Z,15.10
2018-09-26T16:51:36.205Z,15.00
2018-09-26T16:54:05.914Z,14.90
2018-09-26T16:56:44.474Z,14.90
2018-09-26T16:59:29.707Z,14.80
2018-09-26T17:01:59.521Z,14.80
2018-09-26T17:05:00.318Z,14.70
2018-09-26T17:08:02.570Z,14.60
2018-09-26T17:10:46.815Z,14.50
2018-09-26T17:13:56.100Z,14.40
2018-09-26T17:16:39.313Z,14.40
2018-09-26T17:19:12.883Z,14.30
2018-09-26T17:21:43.773Z,14.20
2018-09-26T17:24:12.479Z,14.20
2018-09-26T17:26:44.617Z,14.10
2018-09-26T17:29:18.466Z,14.00
2018-09-26T17:31:57.716Z,13.90
2018-09-26T17:34:26.801Z,13.80
2018-09-26T17:36:55.888Z,13.80
2018-09-26T17:39:25.687Z,13.70
2018-09-26T17:41:57.833Z,13.60
2018-09-26T17:44:27.418Z,13.60
2018-09-26T17:46:57.246Z,13.60
2018-09-26T17:49:42.223Z,13.40
2018-09-26T17:52:11.253Z,13.40
2018-09-26T17:54:43.405Z,13.30
2018-09-26T17:57:12.516Z,13.20
2018-09-26T17:59:44.749Z,13.10
2018-09-26T18:02:27.316Z,13.10
2018-09-26T18:05:11.982Z,13.00
2018-09-26T18:07:45.216Z,12.90
2018-09-26T18:10:16.303Z,12.80
2018-09-26T18:12:46.379Z,12.70
2018-09-26T18:15:16.193Z,12.60
2018-09-26T18:17:54.385Z,12.50
2018-09-26T18:20:42.017Z,12.40
2018-09-26T18:23:11.956Z,12.40
2018-09-26T18:25:47.096Z,12.40
2018-09-26T18:28:26.430Z,12.30
2018-09-26T18:33:05.080Z,12.30
2018-09-26T18:36:21.794Z,12.10
2018-09-26T18:38:52.614Z,12.00
2018-09-26T18:41:22.938Z,11.80
2018-09-26T18:43:54.588Z,11.70
2018-09-26T18:46:25.228Z,11.70
2018-09-26T18:49:10.117Z,11.60
2018-09-26T18:51:44.648Z,11.50
2018-09-26T18:54:20.640Z,11.50
2018-09-26T18:56:53.279Z,11.40
2018-09-26T18:59:23.209Z,11.30
2018-09-26T19:02:13.271Z,11.20
2018-09-26T19:04:59.665Z,11.20
2018-09-26T19:07:34.321Z,11.10
2018-09-26T19:10:09.553Z,11.10
2018-09-26T19:12:42.256Z,11.00
2018-09-26T19:15:26.522Z,11.00
2018-09-26T19:18:25.701Z,10.90
2018-09-26T19:21:04.241Z,11.00
2018-09-26T19:23:57.141Z,10.90
2018-09-26T19:26:31.210Z,10.90
2018-09-26T19:29:12.045Z,10.90
2018-09-26T19:31:47.689Z,10.90
2018-09-26T19:34:28.469Z,10.80
2018-09-26T19:37:20.775Z,10.80
2018-09-26T19:39:56.438Z,10.70
2018-09-26T19:46:12.190Z,10.70
2018-09-26T19:48:42.936Z,10.70
2018-09-26T19:51:34.755Z,10.60
2018-09-26T19:54:24.166Z,10.50
2018-09-26T19:56:54.926Z,10.50
2018-09-26T19:59:26.106Z,10.40
2018-09-26T20:02:21.014Z,10.40
2018-09-26T20:04:51.097Z,10.30
2018-09-26T20:07:22.778Z,10.40
2018-09-26T20:09:55.406Z,10.30
2018-09-26T20:12:28.245Z,10.30
2018-09-26T20:15:20.462Z,10.20
2018-09-26T20:17:51.253Z,10.20
2018-09-26T20:20:24.828Z,10.10
2018-09-26T20:22:54.442Z,10.10
2018-09-26T20:25:26.159Z,10.10
2018-09-26T20:27:57.083Z,10.00
2018-09-26T20:30:28.505Z,10.00
2018-09-26T20:33:01.179Z,10.00
2018-09-26T20:35:30.909Z,9.90
2018-09-26T20:37:59.619Z,9.90
2018-09-26T20:40:32.158Z,9.80
2018-09-26T20:43:12.712Z,9.80
2018-09-26T20:45:42.304Z,9.70
2018-09-26T20:48:21.071Z,9.70
2018-09-26T20:54:25.799Z,9.60
2018-09-26T20:56:58.281Z,9.60
2018-09-26T20:59:36.693Z,9.60
2018-09-26T21:02:31.680Z,9.50
2018-09-26T21:05:09.454Z,9.40
2018-09-26T21:07:40.136Z,9.40
2018-09-26T21:11:41.393Z,9.40
2018-09-26T21:14:16.058Z,9.40
2018-09-26T21:16:47.581Z,9.40
2018-09-26T21:19:31.801Z,9.30
2018-09-26T21:22:20.810Z,9.30
2018-09-26T21:25:03.007Z,9.30
2018-09-26T21:27:36.757Z,9.30
2018-09-26T21:30:07.436Z,9.20
2018-09-26T21:32:39.570Z,9.20
2018-09-26T21:35:09.175Z,9.20
2018-09-26T21:37:40.272Z,9.10
2018-09-26T21:40:12.287Z,9.10
2018-09-26T21:42:46.349Z,9.10
2018-09-26T21:45:17.910Z,9.10
2018-09-26T21:47:48.245Z,9.10
2018-09-26T21:50:17.198Z,9.00
2018-09-26T21:52:46.751Z,9.00
2018-09-26T21:55:15.408Z,9.00
2018-09-26T21:57:45.274Z,9.00
2018-09-26T22:00:15.562Z,9.00
2018-09-26T22:02:43.917Z,8.90
2018-09-26T22:05:12.600Z,8.90
2018-09-26T22:07:55.381Z,8.90
2018-09-26T22:10:47.966Z,8.90
2018-09-26T22:13:29.207Z,8.80
2018-09-26T22:15:59.612Z,8.80
2018-09-26T22:18:28.830Z,8.70
2018-09-26T22:21:00.973Z,8.70
2018-09-26T22:23:33.400Z,8.60
2018-09-26T22:26:05.647Z,8.50
2018-09-26T22:28:36.323Z,8.50
2018-09-26T22:31:05.322Z,8.50
2018-09-26T22:33:34.671Z,8.50
2018-09-26T22:36:03.719Z,8.50
2018-09-26T22:38:33.897Z,8.40
2018-09-26T22:41:04.707Z,8.40
2018-09-26T22:43:34.637Z,8.30
2018-09-26T22:46:04.380Z,8.20
2018-09-26T22:48:37.058Z,8.30
2018-09-26T22:51:07.102Z,8.30
2018-09-26T22:53:36.381Z,8.30
2018-09-26T22:56:07.337Z,8.30
2018-09-26T22:58:37.743Z,8.30
2018-09-26T23:01:07.037Z,8.20
2018-09-26T23:03:37.704Z,8.20
2018-09-26T23:06:07.247Z,8.20
2018-09-26T23:08:39.952Z,8.20
2018-09-26T23:11:14.263Z,8.20
2018-09-26T23:13:43.715Z,8.10
2018-09-26T23:16:13.870Z,8.10
2018-09-26T23:18:45.148Z,8.10
2018-09-26T23:21:14.100Z,8.10
2018-09-26T23:23:43.503Z,8.10
2018-09-26T23:26:16.197Z,8.10
2018-09-26T23:28:46.197Z,8.10
2018-09-26T23:31:16.521Z,8.00
2018-09-26T23:33:46.964Z,7.90
2018-09-26T23:36:18.538Z,7.90
2018-09-26T23:38:48.444Z,7.90
2018-09-26T23:41:17.652Z,7.80
2018-09-26T23:43:47.452Z,7.80
2018-09-26T23:46:19.092Z,7.80
2018-09-26T23:48:48.605Z,7.80
2018-09-26T23:51:18.824Z,7.80
2018-09-26T23:53:50.573Z,7.80
2018-09-26T23:56:21.713Z,7.80
2018-09-26T23:58:51.621Z,7.70
